createdAt,value
2023-02-13T00:04:04.448Z,6.20
2023-02-13T00:09:11.002Z,5.90
2023-02-13T00:14:13.880Z,5.80
2023-02-13T00:19:17.565Z,5.80
2023-02-13T00:24:21.961Z,6.00
2023-02-13T00:29:24.903Z,6.00
2023-02-13T00:34:28.166Z,6.20
2023-02-13T00:39:32.708Z,6.10
2023-02-13T00:44:35.699Z,6.10
2023-02-13T00:49:38.598Z,6.10
2023-02-13T00:54:42.952Z,5.70
2023-02-13T00:59:45.882Z,5.70
2023-02-13T01:04:49.572Z,5.60
2023-02-13T01:09:53.822Z,5.50
2023-02-13T01:14:57.049Z,5.70
2023-02-13T01:19:59.973Z,5.80
2023-02-13T01:25:04.709Z,5.80
2023-02-13T01:30:11.703Z,5.60
2023-02-13T01:35:16.023Z,5.80
2023-02-13T01:40:20.626Z,5.60
2023-02-13T01:45:28.106Z,5.60
2023-02-13T01:50:36.509Z,5.50
2023-02-13T01:55:47.978Z,5.60
2023-02-13T02:00:51.037Z,5.70
2023-02-13T02:05:57.115Z,5.60
2023-02-13T02:11:08.141Z,5.60
2023-02-13T02:16:11.462Z,5.40
2023-02-13T02:21:38.964Z,5.40
2023-02-13T02:26:59.820Z,5.20
2023-02-13T02:32:51.912Z,5.30
2023-02-13T02:38:08.726Z,5.30
2023-02-13T02:43:25.567Z,5.20
2023-02-13T02:48:51.051Z,4.70
2023-02-13T02:54:27.491Z,4.90
2023-02-13T02:59:51.330Z,5.10
2023-02-13T03:05:16.398Z,5.00
2023-02-13T03:10:51.425Z,5.10
2023-02-13T03:16:16.281Z,5.10
2023-02-13T03:21:46.832Z,5.10
2023-02-13T03:26:59.047Z,5.10
2023-02-13T03:32:11.715Z,4.90
2023-02-13T03:37:35.672Z,4.90
2023-02-13T03:42:42.012Z,4.80
2023-02-13T03:47:46.293Z,4.50
2023-02-13T03:52:54.249Z,4.60
2023-02-13T03:58:19.282Z,4.50
2023-02-13T04:03:53.297Z,4.60
2023-02-13T04:08:57.843Z,4.70
2023-02-13T04:14:14.913Z,4.70
2023-02-13T04:19:18.696Z,4.60
2023-02-13T04:24:22.930Z,4.50
2023-02-13T04:29:27.307Z,4.30
2023-02-13T04:34:30.295Z,4.40
2023-02-13T04:39:34.623Z,4.20
2023-02-13T04:44:37.592Z,4.00
2023-02-13T04:49:40.647Z,4.00
2023-02-13T04:54:45.026Z,4.10
2023-02-13T04:59:47.930Z,4.10
2023-02-13T05:04:50.866Z,3.90
2023-02-13T05:09:55.114Z,3.90
2023-02-13T05:14:58.042Z,3.90
2023-02-13T05:20:01.157Z,4.00
2023-02-13T05:25:05.736Z,3.90
2023-02-13T05:30:09.574Z,4.00
2023-02-13T05:35:12.536Z,3.70
2023-02-13T05:40:16.967Z,3.50
2023-02-13T05:45:20.142Z,3.60
2023-02-13T05:50:23.069Z,3.60
2023-02-13T05:55:27.339Z,3.60
2023-02-13T06:00:30.250Z,3.60
2023-02-13T06:05:33.138Z,3.40
2023-02-13T06:10:37.394Z,3.50
2023-02-13T06:15:41.114Z,3.60
2023-02-13T06:20:44.095Z,3.70
2023-02-13T06:25:48.353Z,3.70
2023-02-13T06:30:51.369Z,3.60
2023-02-13T06:35:54.611Z,3.60
2023-02-13T06:41:01.821Z,3.60
2023-02-13T06:46:06.649Z,3.50
2023-02-13T06:51:09.587Z,3.50
2023-02-13T06:56:13.822Z,3.60
2023-02-13T07:01:16.858Z,3.60
2023-02-13T07:06:20.164Z,3.70
2023-02-13T07:11:26.249Z,3.80
2023-02-13T07:16:29.455Z,3.60
2023-02-13T07:21:32.389Z,3.60
2023-02-13T07:26:36.673Z,3.80
2023-02-13T07:31:40.307Z,3.70
2023-02-13T07:36:43.316Z,3.70
2023-02-13T07:41:47.587Z,3.50
2023-02-13T07:46:52.565Z,3.40
2023-02-13T07:51:57.635Z,3.30
2023-02-13T07:57:01.976Z,3.40
2023-02-13T08:02:04.937Z,3.10
2023-02-13T08:07:07.897Z,3.10
2023-02-13T08:12:12.236Z,3.10
2023-02-13T08:17:15.266Z,2.90
2023-02-13T08:22:18.199Z,3.10
2023-02-13T08:27:23.059Z,3.20
2023-02-13T08:32:26.843Z,3.50
2023-02-13T08:37:29.808Z,3.70
2023-02-13T08:42:34.050Z,3.60
2023-02-13T08:47:36.941Z,3.70
2023-02-13T08:52:41.303Z,3.70
2023-02-13T08:57:45.534Z,3.60
2023-02-13T09:02:48.521Z,3.80
2023-02-13T09:07:51.465Z,3.90
2023-02-13T09:12:56.435Z,3.90
2023-02-13T09:17:59.600Z,4.00
2023-02-13T09:23:02.551Z,4.20
2023-02-13T09:28:06.993Z,4.10
2023-02-13T09:33:12.283Z,3.60
2023-02-13T09:38:15.158Z,3.30
2023-02-13T09:43:28.644Z,3.60
2023-02-13T09:48:33.972Z,3.80
2023-02-13T09:53:38.352Z,3.90
2023-02-13T09:58:45.809Z,3.90
2023-02-13T10:03:57.634Z,3.90
2023-02-13T10:09:10.047Z,3.90
2023-02-13T10:14:19.623Z,3.90
2023-02-13T10:19:34.091Z,3.90
2023-02-13T10:24:41.005Z,4.20
2023-02-13T10:30:09.254Z,3.90
2023-02-13T10:35:20.930Z,4.00
2023-02-13T10:40:31.838Z,3.70
2023-02-13T10:46:02.047Z,3.60
2023-02-13T10:51:11.323Z,3.70
2023-02-13T10:56:25.858Z,3.80
2023-02-13T11:01:37.037Z,3.90
2023-02-13T11:06:44.888Z,4.00
2023-02-13T11:11:47.814Z,4.00
2023-02-13T11:16:56.880Z,3.90
2023-02-13T11:22:05.416Z,3.90
2023-02-13T11:27:13.554Z,3.80
2023-02-13T11:32:24.294Z,3.80
2023-02-13T11:37:29.022Z,3.90
2023-02-13T11:42:35.689Z,3.90
2023-02-13T11:47:42.245Z,3.80
2023-02-13T11:52:53.550Z,3.80
2023-02-13T11:58:01.274Z,3.90
2023-02-13T12:03:26.387Z,3.90
2023-02-13T12:08:30.263Z,4.10
2023-02-13T12:13:36.966Z,4.20
2023-02-13T12:18:45.883Z,4.30
2023-02-13T12:23:58.651Z,4.30
2023-02-13T12:29:29.193Z,4.40
2023-02-13T12:34:56.162Z,4.60
2023-02-13T12:40:15.657Z,4.70
2023-02-13T12:45:34.789Z,4.80
2023-02-13T12:50:54.991Z,4.80
2023-02-13T12:56:11.360Z,4.80
2023-02-13T13:01:24.376Z,5.00
2023-02-13T13:06:53.722Z,5.00
2023-02-13T13:12:13.426Z,5.00
2023-02-13T13:17:25.910Z,4.90
2023-02-13T13:22:35.653Z,5.00
2023-02-13T13:27:44.193Z,4.90
2023-02-13T13:32:49.397Z,5.00
2023-02-13T13:38:03.428Z,5.10
2023-02-13T13:43:14.545Z,5.10
2023-02-13T13:48:51.455Z,5.10
2023-02-13T13:54:21.375Z,5.50
2023-02-13T13:59:57.883Z,5.40
2023-02-13T14:05:18.476Z,5.30
2023-02-13T14:11:01.598Z,5.40
2023-02-13T14:16:05.924Z,5.50
2023-02-13T14:21:09.147Z,5.40
2023-02-13T14:26:36.370Z,5.40
2023-02-13T14:31:41.698Z,5.50
2023-02-13T14:36:48.148Z,5.60
2023-02-13T14:42:03.614Z,5.70
2023-02-13T14:47:15.450Z,5.90
2023-02-13T14:52:22.010Z,5.80
2023-02-13T14:57:30.367Z,5.60
2023-02-13T15:02:38.103Z,5.70
2023-02-13T15:07:47.574Z,5.90
2023-02-13T15:12:58.369Z,6.20
2023-02-13T15:18:04.871Z,6.10
2023-02-13T15:23:09.657Z,6.20
2023-02-13T15:28:21.613Z,6.40
2023-02-13T15:33:27.030Z,6.50
2023-02-13T15:38:36.453Z,6.40
2023-02-13T15:43:44.706Z,6.20
2023-02-13T15:48:48.642Z,6.20
2023-02-13T15:53:52.648Z,6.30
2023-02-13T15:58:58.985Z,6.30
2023-02-13T16:04:07.334Z,6.40
2023-02-13T16:09:27.292Z,6.40
2023-02-13T16:14:33.484Z,6.30
2023-02-13T16:19:43.019Z,6.50
2023-02-13T16:25:15.080Z,6.30
2023-02-13T16:30:33.434Z,6.20
2023-02-13T16:35:52.453Z,6.10
2023-02-13T16:40:57.864Z,5.80
2023-02-13T16:46:25.101Z,6.00
2023-02-13T16:51:36.313Z,6.10
2023-02-13T16:56:41.687Z,6.10
2023-02-13T17:01:47.064Z,6.20
2023-02-13T17:06:53.192Z,6.20
2023-02-13T17:11:56.086Z,6.20
2023-02-13T17:17:01.762Z,6.10
2023-02-13T17:22:05.681Z,6.10
2023-02-13T17:27:09.685Z,6.10
2023-02-13T17:32:23.717Z,6.20
2023-02-13T17:37:33.393Z,6.10
2023-02-13T17:42:42.339Z,6.20
2023-02-13T17:48:34.659Z,6.10
2023-02-13T17:54:13.351Z,5.90
2023-02-13T17:59:31.974Z,5.90
2023-02-13T18:04:36.718Z,5.90
2023-02-13T18:09:47.384Z,5.90
2023-02-13T18:14:50.760Z,5.90
2023-02-13T18:19:57.347Z,6.00
2023-02-13T18:25:02.254Z,6.10
2023-02-13T18:30:07.916Z,5.90
2023-02-13T18:35:11.662Z,5.90
2023-02-13T18:40:17.574Z,5.80
2023-02-13T18:45:20.707Z,5.70
2023-02-13T18:50:26.578Z,5.70
2023-02-13T18:55:31.081Z,5.70
2023-02-13T19:00:34.234Z,5.60
2023-02-13T19:05:41.450Z,5.70
2023-02-13T19:10:45.673Z,5.70
2023-02-13T19:15:48.614Z,5.60
2023-02-13T19:20:51.536Z,5.60
2023-02-13T19:25:55.893Z,5.60
2023-02-13T19:31:03.519Z,5.50
2023-02-13T19:36:09.496Z,5.60
2023-02-13T19:41:17.094Z,5.50
2023-02-13T19:46:22.104Z,5.50
2023-02-13T19:51:27.634Z,5.50
2023-02-13T19:56:32.972Z,5.40
2023-02-13T20:01:43.443Z,5.30
2023-02-13T20:06:46.529Z,5.30
2023-02-13T20:12:03.002Z,5.00
2023-02-13T20:17:06.077Z,4.80
2023-02-13T20:22:10.081Z,4.90
2023-02-13T20:27:15.126Z,5.20
2023-02-13T20:32:18.138Z,5.20
2023-02-13T20:37:21.094Z,5.10
2023-02-13T20:42:25.545Z,5.10
2023-02-13T20:47:29.263Z,5.10
2023-02-13T20:52:32.258Z,5.80
2023-02-13T20:57:37.276Z,5.50
2023-02-13T21:02:40.268Z,5.30
2023-02-13T21:07:43.333Z,5.20
2023-02-13T21:12:47.605Z,5.10
2023-02-13T21:17:50.468Z,5.20
2023-02-13T21:22:53.381Z,5.20
2023-02-13T21:27:57.725Z,5.00
2023-02-13T21:33:00.657Z,4.90
2023-02-13T21:38:03.653Z,4.90
2023-02-13T21:43:07.944Z,4.90
2023-02-13T21:48:10.855Z,5.00
2023-02-13T21:53:13.758Z,5.00
2023-02-13T21:58:18.052Z,4.80
2023-02-13T22:03:20.962Z,4.70
2023-02-13T22:08:23.907Z,4.80
2023-02-13T22:13:28.907Z,4.80
2023-02-13T22:18:32.595Z,4.70
2023-02-13T22:23:36.900Z,4.70
2023-02-13T22:28:41.251Z,4.60
2023-02-13T22:33:47.697Z,4.60
2023-02-13T22:38:53.624Z,4.60
2023-02-13T22:43:58.314Z,4.60
2023-02-13T22:49:01.269Z,4.50
2023-02-13T22:54:05.257Z,4.50
2023-02-13T22:59:10.310Z,4.50
2023-02-13T23:04:14.518Z,4.40
2023-02-13T23:09:17.422Z,4.30
2023-02-13T23:14:24.496Z,4.30
2023-02-13T23:19:29.691Z,4.20
2023-02-13T23:24:32.825Z,4.20
2023-02-13T23:29:37.165Z,4.20
2023-02-13T23:34:40.055Z,4.30
2023-02-13T23:39:43.124Z,4.20
2023-02-13T23:44:47.418Z,4.10
2023-02-13T23:49:50.426Z,4.30
2023-02-13T23:54:53.300Z,4.10
2023-02-13T23:59:57.545Z,3.90
